createdAt,value
2019-06-07T00:01:28.294Z,80.26
2019-06-07T00:03:58.677Z,80.07
2019-06-07T00:06:29.866Z,80.22
2019-06-07T00:09:00.104Z,81.10
2019-06-07T00:11:31.924Z,81.10
2019-06-07T00:14:02.241Z,81.36
2019-06-07T00:16:32.428Z,81.36
2019-06-07T00:19:02.632Z,81.24
2019-06-07T00:22:12.656Z,80.85
2019-06-07T00:24:04.777Z,80.85
2019-06-07T00:26:56.365Z,81.13
2019-06-07T00:29:09.110Z,80.17
2019-06-07T00:31:39.148Z,80.17
2019-06-07T00:34:10.731Z,79.67
2019-06-07T00:36:41.274Z,79.67
2019-06-07T00:39:14.315Z,79.90
2019-06-07T00:41:43.396Z,80.29
2019-06-07T00:44:15.105Z,82.46
2019-06-07T00:46:45.496Z,82.91
2019-06-07T00:49:32.279Z,82.65
2019-06-07T00:51:51.505Z,81.41
2019-06-07T00:54:21.898Z,81.41
2019-06-07T00:56:52.038Z,80.65
2019-06-07T00:59:28.909Z,79.96
2019-06-07T01:01:54.114Z,79.26
2019-06-07T01:04:26.399Z,79.26
2019-06-07T01:06:56.491Z,79.17
2019-06-07T01:09:26.702Z,78.92
2019-06-07T01:11:56.883Z,79.39
2019-06-07T01:14:28.499Z,79.60
2019-06-07T01:17:20.167Z,79.32
2019-06-07T01:19:31.075Z,79.85
2019-06-07T01:22:01.260Z,79.85
2019-06-07T01:24:32.614Z,79.55
2019-06-07T01:27:02.828Z,79.55
2019-06-07T01:29:33.085Z,79.32
2019-06-07T01:32:03.303Z,79.38
2019-06-07T01:34:33.521Z,79.28
2019-06-07T01:37:03.713Z,78.86
2019-06-07T01:39:33.937Z,78.86
2019-06-07T01:42:04.249Z,78.22
2019-06-07T01:44:34.902Z,78.20
2019-06-07T01:47:05.080Z,77.85
2019-06-07T01:49:35.321Z,77.85
2019-06-07T01:52:05.517Z,77.67
2019-06-07T01:54:56.354Z,77.67
2019-06-07T01:57:07.644Z,77.91
2019-06-07T01:59:37.845Z,78.67
2019-06-07T02:02:08.061Z,78.67
2019-06-07T02:04:38.271Z,78.75
2019-06-07T02:07:08.478Z,79.38
2019-06-07T02:09:38.660Z,79.38
2019-06-07T02:12:25.059Z,79.69
2019-06-07T02:14:40.964Z,79.69
2019-06-07T02:17:11.228Z,81.35
2019-06-07T02:19:41.429Z,81.35
2019-06-07T02:22:11.646Z,83.67
2019-06-07T02:24:43.761Z,82.76
2019-06-07T02:27:14.125Z,82.76
2019-06-07T02:29:44.312Z,84.33
2019-06-07T02:32:14.506Z,84.33
2019-06-07T02:34:44.747Z,84.96
2019-06-07T02:37:14.958Z,84.15
2019-06-07T02:39:45.147Z,84.15
2019-06-07T02:42:15.332Z,83.01
2019-06-07T02:44:45.543Z,81.45
2019-06-07T02:47:15.780Z,81.77
2019-06-07T02:49:46.049Z,81.34
2019-06-07T02:52:16.220Z,80.70
2019-06-07T02:54:46.425Z,80.70
2019-06-07T02:57:16.628Z,80.84
2019-06-07T03:00:06.777Z,80.29
2019-06-07T03:02:18.737Z,80.29
2019-06-07T03:04:48.957Z,79.43
2019-06-07T03:07:19.555Z,79.19
2019-06-07T03:09:49.761Z,79.26
2019-06-07T03:12:20.881Z,79.26
2019-06-07T03:14:51.126Z,79.13
2019-06-07T03:17:34.691Z,79.13
2019-06-07T03:20:03.483Z,79.91
2019-06-07T03:22:38.933Z,79.91
2019-06-07T03:25:06.033Z,79.19
2019-06-07T03:27:48.641Z,79.19
2019-06-07T03:30:36.288Z,78.96
2019-06-07T03:32:47.473Z,79.38
2019-06-07T03:35:13.142Z,79.15
2019-06-07T03:37:43.420Z,79.15
2019-06-07T03:40:13.601Z,79.11
2019-06-07T03:42:43.811Z,79.11
2019-06-07T03:45:14.054Z,78.69
2019-06-07T03:47:44.358Z,78.63
2019-06-07T03:50:14.568Z,78.63
2019-06-07T03:52:44.961Z,78.86
2019-06-07T03:55:15.230Z,79.41
2019-06-07T03:58:30.088Z,80.36
2019-06-07T04:00:17.553Z,80.13
2019-06-07T04:02:47.765Z,80.13
2019-06-07T04:05:17.974Z,79.27
2019-06-07T04:07:48.157Z,79.18
2019-06-07T04:10:18.384Z,79.18
2019-06-07T04:12:48.838Z,80.33
2019-06-07T04:15:19.014Z,80.33
2019-06-07T04:18:01.460Z,79.50
2019-06-07T04:20:21.325Z,79.50
2019-06-07T04:22:51.565Z,77.27
2019-06-07T04:25:21.762Z,76.80
2019-06-07T04:27:51.975Z,77.01
2019-06-07T04:30:41.831Z,76.97
2019-06-07T04:33:12.848Z,73.14
2019-06-07T04:35:43.561Z,73.13
2019-06-07T04:38:15.584Z,72.27
2019-06-07T04:40:47.043Z,70.85
2019-06-07T04:43:17.504Z,70.85
2019-06-07T04:45:51.127Z,66.42
2019-06-07T04:48:22.607Z,63.33
2019-06-07T04:50:53.008Z,62.31
2019-06-07T04:53:23.389Z,62.31
2019-06-07T04:55:56.886Z,58.73
2019-06-07T04:58:27.422Z,58.67
2019-06-07T05:01:03.096Z,56.78
2019-06-07T05:03:34.495Z,56.78
2019-06-07T05:06:01.792Z,60.76
2019-06-07T05:08:35.445Z,59.19
2019-06-07T05:11:07.366Z,58.13
2019-06-07T05:13:38.989Z,58.13
2019-06-07T05:16:09.537Z,55.74
2019-06-07T05:18:42.909Z,54.27
2019-06-07T05:21:12.022Z,53.73
2019-06-07T05:24:05.278Z,54.82
2019-06-07T05:26:15.395Z,54.53
2019-06-07T05:28:45.630Z,52.32
2019-06-07T05:31:15.862Z,52.49
2019-06-07T05:33:46.059Z,52.82
2019-06-07T05:36:16.287Z,50.29
2019-06-07T05:38:46.491Z,45.34
2019-06-07T05:41:17.754Z,45.34
2019-06-07T05:44:09.192Z,46.63
2019-06-07T05:46:19.849Z,46.89
2019-06-07T05:48:50.071Z,45.97
2019-06-07T05:51:20.284Z,45.93
2019-06-07T05:53:50.464Z,44.09
2019-06-07T05:56:20.713Z,43.43
2019-06-07T05:58:51.057Z,43.43
2019-06-07T06:01:46.053Z,44.07
2019-06-07T06:03:54.003Z,43.56
2019-06-07T06:06:24.197Z,44.25
2019-06-07T06:09:12.814Z,42.89
2019-06-07T06:11:42.963Z,48.29
2019-06-07T06:14:07.284Z,46.72
2019-06-07T06:16:30.133Z,44.04
2019-06-07T06:19:00.317Z,44.45
2019-06-07T06:21:30.528Z,44.45
2019-06-07T06:24:01.774Z,46.31
2019-06-07T06:26:32.003Z,44.62
2019-06-07T06:29:02.178Z,43.73
2019-06-07T06:31:32.344Z,43.73
2019-06-07T06:34:03.841Z,46.40
2019-06-07T06:36:34.060Z,44.93
2019-06-07T06:39:05.164Z,45.67
2019-06-07T06:41:46.113Z,46.95
2019-06-07T06:44:07.247Z,47.14
2019-06-07T06:46:42.183Z,49.81
2019-06-07T06:49:11.312Z,49.81
2019-06-07T06:51:43.048Z,48.38
2019-06-07T06:54:13.393Z,48.14
2019-06-07T06:56:46.980Z,48.14
2019-06-07T07:01:52.333Z,52.09
2019-06-07T07:04:21.126Z,50.95
2019-06-07T07:06:53.665Z,53.09
2019-06-07T07:09:23.554Z,52.30
2019-06-07T07:12:10.398Z,52.30
2019-06-07T07:14:25.673Z,52.79
2019-06-07T07:16:56.616Z,53.20
2019-06-07T07:19:27.033Z,51.81
2019-06-07T07:21:57.230Z,51.81
2019-06-07T07:24:27.397Z,51.74
2019-06-07T07:26:58.423Z,51.74
2019-06-07T07:29:29.382Z,52.69
2019-06-07T07:31:59.544Z,52.69
2019-06-07T07:34:35.659Z,52.51
2019-06-07T07:37:01.632Z,50.61
2019-06-07T07:39:31.945Z,50.89
2019-06-07T07:42:20.278Z,50.89
2019-06-07T07:44:36.202Z,50.34
2019-06-07T07:47:06.400Z,50.96
2019-06-07T07:49:36.601Z,49.50
2019-06-07T07:52:06.798Z,48.89
2019-06-07T07:54:36.956Z,48.89
2019-06-07T07:57:07.153Z,49.85
2019-06-07T07:59:44.027Z,49.85
2019-06-07T08:02:09.200Z,50.86
2019-06-07T08:05:13.517Z,50.12
2019-06-07T08:07:11.347Z,50.83
2019-06-07T08:09:41.562Z,50.83
2019-06-07T08:12:11.717Z,50.21
2019-06-07T08:14:42.094Z,50.98
2019-06-07T08:17:12.405Z,50.98
2019-06-07T08:19:42.880Z,50.56
2019-06-07T08:22:13.139Z,52.42
2019-06-07T08:24:43.342Z,50.80
2019-06-07T08:27:25.824Z,50.80
2019-06-07T08:30:01.769Z,52.38
2019-06-07T08:32:17.467Z,53.17
2019-06-07T08:34:51.840Z,50.95
2019-06-07T08:37:19.675Z,50.95
2019-06-07T08:39:50.445Z,50.67
2019-06-07T08:42:36.014Z,50.60
2019-06-07T08:44:56.431Z,50.60
2019-06-07T08:47:25.534Z,49.14
2019-06-07T08:50:04.379Z,50.24
2019-06-07T08:52:28.695Z,50.24
2019-06-07T08:55:03.375Z,50.23
2019-06-07T08:57:31.929Z,50.23
2019-06-07T09:00:16.023Z,50.21
2019-06-07T09:02:33.994Z,48.99
2019-06-07T09:05:11.737Z,48.62
2019-06-07T09:07:37.336Z,48.67
2019-06-07T09:10:13.425Z,48.78
2019-06-07T09:12:39.641Z,49.99
2019-06-07T09:15:20.622Z,48.47
2019-06-07T09:18:29.769Z,48.47
2019-06-07T09:20:35.057Z,49.14
2019-06-07T09:22:46.739Z,49.14
2019-06-07T09:25:21.818Z,48.46
2019-06-07T09:27:49.809Z,47.34
2019-06-07T09:30:37.970Z,47.57
2019-06-07T09:33:09.077Z,47.57
2019-06-07T09:35:39.874Z,48.87
2019-06-07T09:38:23.722Z,48.87
2019-06-07T09:40:41.967Z,48.30
2019-06-07T09:45:45.276Z,48.37
2019-06-07T09:48:34.366Z,48.62
2019-06-07T09:50:47.347Z,46.93
2019-06-07T09:53:22.458Z,46.93
2019-06-07T09:55:49.437Z,47.83
2019-06-07T10:00:51.483Z,46.73
2019-06-07T10:03:23.987Z,47.67
2019-06-07T10:05:54.169Z,47.65
2019-06-07T10:09:42.372Z,47.65
2019-06-07T10:10:56.445Z,46.91
2019-06-07T10:13:26.643Z,46.90
2019-06-07T10:15:58.885Z,46.43
2019-06-07T10:18:29.270Z,45.92
2019-06-07T10:20:59.464Z,45.88
2019-06-07T10:23:29.642Z,45.98
2019-06-07T10:26:01.625Z,45.01
2019-06-07T10:28:31.961Z,45.01
2019-06-07T10:31:02.199Z,45.24
2019-06-07T10:33:32.541Z,44.88
2019-06-07T10:36:02.718Z,44.88
2019-06-07T10:38:33.979Z,44.38
2019-06-07T10:41:04.731Z,43.46
2019-06-07T10:43:35.025Z,42.89
2019-06-07T10:46:05.683Z,44.98
2019-06-07T10:48:36.130Z,45.72
2019-06-07T10:51:06.289Z,45.72
2019-06-07T10:53:36.497Z,43.00
2019-06-07T10:56:07.027Z,43.33
2019-06-07T10:58:37.379Z,43.39
2019-06-07T11:01:07.559Z,45.00
2019-06-07T11:03:38.654Z,44.00
2019-06-07T11:06:10.116Z,44.00
2019-06-07T11:08:41.444Z,44.66
2019-06-07T11:11:12.243Z,42.09
2019-06-07T11:13:45.670Z,42.81
2019-06-07T11:16:17.648Z,43.13
2019-06-07T11:18:48.015Z,43.54
2019-06-07T11:21:18.654Z,41.94
2019-06-07T11:23:50.227Z,40.90
2019-06-07T11:26:20.399Z,39.95
2019-06-07T11:28:51.691Z,40.67
2019-06-07T11:31:21.937Z,40.16
2019-06-07T11:33:52.495Z,40.16
2019-06-07T11:36:24.444Z,40.35
2019-06-07T11:38:54.629Z,39.71
2019-06-07T11:41:24.835Z,38.36
2019-06-07T11:43:55.059Z,38.68
2019-06-07T11:46:25.387Z,38.68
2019-06-07T11:48:55.565Z,40.17
2019-06-07T11:51:25.790Z,39.28
2019-06-07T11:53:56.370Z,39.28
2019-06-07T11:56:26.613Z,40.55
2019-06-07T11:58:56.842Z,39.88
2019-06-07T12:01:27.086Z,40.19
2019-06-07T12:03:58.844Z,41.17
2019-06-07T12:06:30.297Z,41.17
2019-06-07T12:09:00.546Z,40.77
2019-06-07T12:11:31.644Z,39.40
2019-06-07T12:14:01.917Z,38.33
2019-06-07T12:16:35.363Z,38.92
2019-06-07T12:19:05.648Z,39.14
2019-06-07T12:21:36.331Z,39.43
2019-06-07T12:24:06.734Z,38.05
2019-06-07T12:26:37.063Z,37.44
2019-06-07T12:29:07.310Z,36.96
2019-06-07T12:31:37.533Z,40.24
2019-06-07T12:34:11.177Z,39.45
2019-06-07T12:36:43.432Z,39.35
2019-06-07T12:39:13.898Z,40.75
2019-06-07T12:41:44.337Z,40.75
2019-06-07T12:44:14.642Z,39.88
2019-06-07T12:46:45.140Z,39.93
2019-06-07T12:49:16.940Z,39.29
2019-06-07T12:51:47.326Z,39.29
2019-06-07T12:54:17.650Z,39.11
2019-06-07T12:56:47.894Z,38.42
2019-06-07T12:59:18.100Z,37.50
2019-06-07T13:01:48.267Z,38.70
2019-06-07T13:04:18.534Z,38.70
2019-06-07T13:06:50.900Z,38.03
2019-06-07T13:09:21.888Z,37.90
2019-06-07T13:11:52.177Z,37.90
2019-06-07T13:14:22.386Z,37.51
2019-06-07T13:16:52.839Z,37.44
2019-06-07T13:19:24.210Z,36.79
2019-06-07T13:21:54.583Z,37.31
2019-06-07T13:24:26.622Z,38.30
2019-06-07T13:26:56.927Z,37.90
2019-06-07T13:29:32.258Z,36.07
2019-06-07T13:32:02.737Z,35.13
2019-06-07T13:34:32.939Z,35.69
2019-06-07T13:37:03.161Z,35.98
2019-06-07T13:39:33.332Z,36.84
2019-06-07T13:42:03.616Z,36.84
2019-06-07T13:44:33.828Z,36.26
2019-06-07T13:47:04.048Z,36.46
2019-06-07T13:49:34.292Z,36.10
2019-06-07T13:52:04.600Z,33.80
2019-06-07T13:54:34.767Z,33.76
2019-06-07T13:57:04.970Z,33.79
2019-06-07T13:59:35.153Z,33.73
2019-06-07T14:02:05.415Z,34.02
2019-06-07T14:04:35.591Z,34.33
2019-06-07T14:07:06.052Z,35.10
2019-06-07T14:09:36.370Z,34.85
2019-06-07T14:12:07.800Z,34.85
2019-06-07T14:14:38.174Z,34.48
2019-06-07T14:17:08.487Z,34.48
2019-06-07T14:19:38.919Z,34.17
2019-06-07T14:22:09.203Z,34.18
2019-06-07T14:24:39.591Z,34.18
2019-06-07T14:27:09.965Z,33.61
2019-06-07T14:29:40.315Z,35.58
2019-06-07T14:32:10.680Z,35.58
2019-06-07T14:34:40.837Z,32.72
2019-06-07T14:37:11.188Z,34.09
2019-06-07T14:39:41.444Z,34.07
2019-06-07T14:42:11.618Z,33.27
2019-06-07T14:44:46.030Z,33.27
2019-06-07T14:47:16.292Z,33.57
2019-06-07T14:49:46.491Z,33.92
2019-06-07T14:52:16.693Z,33.61
2019-06-07T14:54:46.888Z,33.61
2019-06-07T14:57:17.132Z,33.44
2019-06-07T14:59:48.450Z,31.77
2019-06-07T15:02:18.786Z,32.44
2019-06-07T15:04:49.042Z,32.44
2019-06-07T15:07:19.238Z,32.70
2019-06-07T15:09:49.441Z,33.64
2019-06-07T15:12:24.945Z,34.37
2019-06-07T15:14:54.973Z,34.69
2019-06-07T15:17:26.442Z,34.69
2019-06-07T15:19:57.253Z,34.80
2019-06-07T15:22:27.986Z,35.20
2019-06-07T15:24:58.575Z,34.71
2019-06-07T15:27:29.192Z,34.68
2019-06-07T15:29:59.675Z,33.76
2019-06-07T15:32:30.643Z,34.50
2019-06-07T15:35:01.374Z,34.54
2019-06-07T15:37:32.556Z,35.11
2019-06-07T15:40:07.784Z,36.09
2019-06-07T15:42:49.734Z,36.00
2019-06-07T15:45:12.197Z,35.85
2019-06-07T15:47:42.410Z,35.83
2019-06-07T15:50:12.598Z,36.21
2019-06-07T15:52:43.422Z,35.44
2019-06-07T15:55:13.790Z,35.44
2019-06-07T15:57:44.002Z,34.46
2019-06-07T16:00:14.201Z,34.46
2019-06-07T16:02:44.504Z,35.46
2019-06-07T16:05:16.151Z,36.51
2019-06-07T16:07:46.353Z,36.81
2019-06-07T16:10:18.133Z,38.25
2019-06-07T16:13:00.315Z,39.44
2019-06-07T16:15:21.352Z,41.40
2019-06-07T16:17:51.534Z,41.40
2019-06-07T16:20:23.039Z,43.52
2019-06-07T16:22:53.198Z,45.02
2019-06-07T16:25:23.669Z,44.64
2019-06-07T16:27:53.890Z,44.76
2019-06-07T16:30:24.164Z,44.97
2019-06-07T16:32:54.379Z,44.78
2019-06-07T16:35:24.643Z,44.38
2019-06-07T16:37:54.845Z,45.73
2019-06-07T16:40:25.093Z,45.73
2019-06-07T16:42:55.315Z,46.20
2019-06-07T16:45:26.369Z,46.89
2019-06-07T16:47:56.598Z,47.09
2019-06-07T16:50:26.820Z,47.15
2019-06-07T16:52:57.031Z,47.46
2019-06-07T16:55:27.603Z,47.84
2019-06-07T16:57:57.811Z,47.87
2019-06-07T17:00:28.104Z,47.67
2019-06-07T17:02:58.419Z,47.69
2019-06-07T17:05:28.727Z,47.37
2019-06-07T17:07:58.912Z,47.77
2019-06-07T17:10:29.133Z,48.16
2019-06-07T17:12:59.312Z,48.67
2019-06-07T17:15:29.554Z,48.67
2019-06-07T17:18:00.894Z,49.75
2019-06-07T17:20:31.095Z,48.27
2019-06-07T17:23:01.298Z,48.27
2019-06-07T17:25:31.920Z,48.32
2019-06-07T17:28:02.307Z,47.83
2019-06-07T17:30:32.536Z,46.92
2019-06-07T17:33:02.784Z,48.34
2019-06-07T17:35:32.989Z,50.50
2019-06-07T17:38:03.356Z,50.50
2019-06-07T17:40:33.702Z,51.38
2019-06-07T17:43:03.903Z,51.62
2019-06-07T17:45:34.130Z,50.26
2019-06-07T17:48:04.423Z,50.26
2019-06-07T17:50:34.680Z,49.95
2019-06-07T17:53:04.870Z,49.44
2019-06-07T17:55:35.087Z,49.74
2019-06-07T17:58:05.289Z,48.61
2019-06-07T18:00:53.093Z,47.08
2019-06-07T18:03:23.517Z,47.08
2019-06-07T18:05:54.147Z,49.06
2019-06-07T18:08:25.293Z,47.21
2019-06-07T18:10:55.971Z,47.21
2019-06-07T18:13:27.661Z,46.67
2019-06-07T18:15:59.844Z,46.65
2019-06-07T18:18:30.150Z,46.65
2019-06-07T18:21:00.324Z,47.55
2019-06-07T18:23:30.538Z,47.65
2019-06-07T18:26:00.802Z,44.52
2019-06-07T18:28:33.255Z,44.52
2019-06-07T18:31:03.497Z,43.44
2019-06-07T18:33:34.071Z,43.44
2019-06-07T18:36:04.573Z,44.51
2019-06-07T18:38:34.776Z,44.06
2019-06-07T18:41:06.311Z,44.85
2019-06-07T18:43:36.899Z,44.58
2019-06-07T18:46:07.127Z,44.58
2019-06-07T18:48:38.956Z,45.18
2019-06-07T18:51:10.909Z,52.12
2019-06-07T18:53:49.789Z,52.12
2019-06-07T18:56:25.007Z,52.90
2019-06-07T18:58:56.779Z,56.10
2019-06-07T19:01:28.492Z,56.10
2019-06-07T19:03:59.678Z,56.21
2019-06-07T19:06:43.876Z,56.71
2019-06-07T19:09:14.415Z,58.94
2019-06-07T19:11:53.181Z,55.83
2019-06-07T19:14:36.704Z,55.20
2019-06-07T19:16:58.014Z,55.65
2019-06-07T19:19:28.310Z,55.65
2019-06-07T19:22:00.188Z,55.22
2019-06-07T19:24:31.809Z,58.32
2019-06-07T19:27:02.026Z,58.91
2019-06-07T19:29:32.221Z,58.91
2019-06-07T19:32:02.440Z,58.67
2019-06-07T19:34:32.925Z,59.19
2019-06-07T19:37:04.731Z,59.45
2019-06-07T19:39:38.241Z,59.45
2019-06-07T19:42:09.764Z,60.44
2019-06-07T19:44:53.047Z,60.44
2019-06-07T19:47:13.029Z,59.69
2019-06-07T19:49:46.870Z,61.07
2019-06-07T19:52:17.037Z,61.07
2019-06-07T19:54:47.252Z,59.47
2019-06-07T19:57:19.094Z,59.49
2019-06-07T19:59:49.307Z,59.33
2019-06-07T20:02:19.487Z,58.75
2019-06-07T20:04:49.706Z,59.48
2019-06-07T20:07:20.939Z,60.32
2019-06-07T20:09:51.170Z,60.38
2019-06-07T20:12:21.611Z,59.94
2019-06-07T20:14:55.375Z,59.94
2019-06-07T20:17:24.057Z,59.65
2019-06-07T20:19:54.248Z,59.63
2019-06-07T20:22:25.036Z,58.86
2019-06-07T20:25:06.537Z,59.56
2019-06-07T20:27:36.739Z,59.51
2019-06-07T20:30:08.575Z,59.51
2019-06-07T20:32:38.995Z,59.18
2019-06-07T20:35:09.253Z,57.61
2019-06-07T20:37:40.449Z,57.61
2019-06-07T20:40:23.572Z,57.12
2019-06-07T20:42:42.587Z,58.07
2019-06-07T20:45:13.124Z,56.69
2019-06-07T20:47:43.346Z,56.69
2019-06-07T20:50:13.630Z,57.38
2019-06-07T20:52:43.898Z,57.38
2019-06-07T20:55:14.349Z,56.38
2019-06-07T20:57:45.762Z,56.38
2019-06-07T21:00:21.366Z,57.67
2019-06-07T21:02:47.948Z,57.04
2019-06-07T21:05:18.253Z,60.36
2019-06-07T21:07:48.932Z,60.36
2019-06-07T21:10:19.103Z,62.00
2019-06-07T21:12:49.321Z,63.78
2019-06-07T21:15:19.501Z,64.60
2019-06-07T21:17:49.699Z,64.60
2019-06-07T21:20:19.894Z,60.59
2019-06-07T21:22:50.096Z,64.86
2019-06-07T21:25:20.288Z,66.97
2019-06-07T21:27:50.487Z,66.31
2019-06-07T21:30:20.682Z,67.25
2019-06-07T21:32:50.892Z,66.57
2019-06-07T21:35:22.657Z,66.02
2019-06-07T21:37:52.905Z,67.64
2019-06-07T21:40:23.388Z,66.07
2019-06-07T21:42:53.545Z,66.07
2019-06-07T21:45:23.739Z,66.46
2019-06-07T21:47:53.940Z,67.19
2019-06-07T21:50:24.104Z,67.19
2019-06-07T21:52:54.322Z,67.39
2019-06-07T21:55:24.512Z,67.39
2019-06-07T21:57:55.431Z,65.46
2019-06-07T22:00:57.035Z,65.76
2019-06-07T22:03:27.932Z,65.30
2019-06-07T22:05:59.912Z,65.30
2019-06-07T22:08:32.319Z,63.54
2019-06-07T22:11:03.755Z,63.42
2019-06-07T22:13:34.669Z,64.00
2019-06-07T22:16:21.250Z,64.74
2019-06-07T22:18:38.339Z,64.74
2019-06-07T22:21:10.745Z,65.36
2019-06-07T22:23:47.665Z,65.20
2019-06-07T22:26:21.715Z,68.56
2019-06-07T22:28:52.819Z,68.56
2019-06-07T22:31:23.049Z,68.12
2019-06-07T22:33:53.370Z,67.77
2019-06-07T22:36:23.903Z,67.77
2019-06-07T22:38:55.144Z,67.06
2019-06-07T22:41:25.353Z,69.10
2019-06-07T22:43:55.554Z,70.72
2019-06-07T22:46:36.819Z,71.17
2019-06-07T22:48:58.014Z,71.17
2019-06-07T22:51:28.734Z,71.94
2019-06-07T22:53:58.936Z,72.09
2019-06-07T22:56:34.504Z,72.09
2019-06-07T22:59:04.756Z,69.75
2019-06-07T23:01:34.933Z,70.34
2019-06-07T23:04:05.122Z,71.00
2019-06-07T23:06:35.293Z,71.01
2019-06-07T23:09:06.579Z,70.73
2019-06-07T23:11:36.862Z,71.00
2019-06-07T23:14:07.078Z,69.55
2019-06-07T23:16:54.415Z,69.55
2019-06-07T23:19:10.290Z,69.12
2019-06-07T23:21:40.491Z,69.73
2019-06-07T23:24:11.809Z,69.73
2019-06-07T23:26:42.149Z,69.80
2019-06-07T23:29:12.519Z,70.31
2019-06-07T23:31:43.243Z,70.67
2019-06-07T23:34:14.622Z,69.73
2019-06-07T23:36:44.908Z,69.15
2019-06-07T23:39:15.457Z,68.99
2019-06-07T23:41:45.726Z,70.46
2019-06-07T23:44:17.133Z,69.88
2019-06-07T23:46:49.144Z,69.88
2019-06-07T23:49:19.632Z,69.59
2019-06-07T23:51:50.017Z,69.59
2019-06-07T23:54:20.242Z,72.71
2019-06-07T23:56:50.415Z,72.43
2019-06-07T23:59:22.055Z,72.04
